Time;durP1;ratioP1;P1;durP2;ratioP2;P2;SDS_P1;SDS_P2;PMS_P1;PMS_P2;Temp;Humidity;BMP_temperature;BMP_pressure;BME280_temperature;BME280_humidity;BME280_pressure;Samples;Min_cycle;Max_cycle;Signal;HPM_P1;HPM_P2
2022/04/23 00:01:01;;;;;;;3.33;2.00;;;11.30;99.90;;;;;;5014493;28;20055;-57
2022/04/23 00:03:28;;;;;;;2.40;1.63;;;11.30;99.90;;;;;;5024412;28;20119;-58
2022/04/23 00:05:55;;;;;;;2.38;1.52;;;11.30;99.90;;;;;;5009132;28;20181;-58
2022/04/23 00:08:22;;;;;;;3.60;2.28;;;11.20;99.90;;;;;;5021040;28;20092;-57
2022/04/23 00:10:49;;;;;;;2.00;1.23;;;11.20;99.90;;;;;;5014324;28;20089;-57
2022/04/23 00:13:15;;;;;;;3.78;1.95;;;11.30;99.90;;;;;;5005048;28;20084;-58
2022/04/23 00:15:43;;;;;;;5.07;1.98;;;11.30;99.90;;;;;;5017789;28;20131;-57
2022/04/23 00:18:10;;;;;;;3.97;1.90;;;11.30;99.90;;;;;;5004714;28;20053;-58
2022/04/23 00:20:37;;;;;;;3.28;1.80;;;11.30;99.90;;;;;;5011202;28;20132;-56
2022/04/23 00:23:05;;;;;;;3.33;1.63;;;11.30;99.90;;;;;;5014374;28;20054;-57
2022/04/23 00:25:32;;;;;;;2.70;1.73;;;11.30;99.90;;;;;;5018315;28;20061;-57
2022/04/23 00:27:59;;;;;;;4.63;2.38;;;11.30;99.90;;;;;;5003501;28;20603;-57
2022/04/23 00:30:26;;;;;;;4.10;1.90;;;11.30;99.90;;;;;;5018689;28;20132;-57
2022/04/23 00:32:53;;;;;;;3.30;1.85;;;11.30;99.90;;;;;;5020178;28;20084;-57
2022/04/23 00:35:19;;;;;;;3.53;1.70;;;11.30;99.90;;;;;;5015661;28;20137;-58
2022/04/23 00:37:46;;;;;;;1.95;1.20;;;11.30;99.90;;;;;;5002775;28;20091;-57
2022/04/23 00:40:16;;;;;;;3.25;1.60;;;11.30;99.90;;;;;;5020976;28;20080;-58
2022/04/23 00:42:54;;;;;;;3.05;1.92;;;11.30;99.90;;;;;;5023976;28;20057;-57
2022/04/23 00:45:22;;;;;;;2.65;1.42;;;11.30;99.90;;;;;;5020838;28;20131;-58
2022/04/23 00:47:49;;;;;;;4.15;1.50;;;11.30;99.90;;;;;;5003843;28;20068;-58
2022/04/23 00:50:20;;;;;;;3.33;1.83;;;11.30;99.90;;;;;;5017404;28;20050;-58
2022/04/23 00:52:52;;;;;;;2.50;1.58;;;11.40;99.90;;;;;;5023054;28;20816;-57
2022/04/23 00:55:19;;;;;;;2.53;1.65;;;11.30;99.90;;;;;;5019820;28;20045;-58
2022/04/23 00:57:46;;;;;;;2.33;1.23;;;11.30;99.90;;;;;;5002294;28;20085;-59
2022/04/23 01:00:13;;;;;;;2.33;1.40;;;11.40;99.90;;;;;;5010581;28;20085;-58
2022/04/23 01:02:40;;;;;;;2.90;1.50;;;11.40;99.90;;;;;;5022582;28;20103;-57
2022/04/23 01:05:09;;;;;;;2.83;1.35;;;11.40;99.90;;;;;;5016785;28;20061;-57
2022/04/23 01:07:45;;;;;;;2.78;1.65;;;11.40;99.90;;;;;;5002556;28;20078;-58
2022/04/23 01:10:11;;;;;;;3.85;2.03;;;11.30;99.90;;;;;;5005383;28;20085;-59
2022/04/23 01:12:38;;;;;;;2.80;2.00;;;11.30;99.90;;;;;;5021190;28;20077;-58
2022/04/23 01:15:07;;;;;;;2.85;1.63;;;11.30;99.90;;;;;;5018091;28;20129;-58
2022/04/23 01:17:34;;;;;;;3.63;2.20;;;11.30;99.90;;;;;;5002605;28;20100;-58
2022/04/23 01:20:11;;;;;;;3.60;2.13;;;11.30;99.90;;;;;;5004148;28;20136;-59
2022/04/23 01:22:38;;;;;;;4.78;1.95;;;11.20;99.90;;;;;;5022271;28;20141;-58
2022/04/23 01:25:06;;;;;;;2.85;1.73;;;11.30;99.90;;;;;;5021689;28;20124;-58
2022/04/23 01:27:34;;;;;;;2.53;1.95;;;11.30;99.90;;;;;;5017686;28;20129;-58
2022/04/23 01:30:01;;;;;;;2.90;2.03;;;11.30;99.90;;;;;;5015342;28;20064;-58
2022/04/23 01:32:28;;;;;;;4.43;2.30;;;11.30;99.90;;;;;;5013437;28;20111;-58
2022/04/23 01:34:54;;;;;;;3.97;1.98;;;11.30;99.90;;;;;;5017887;28;20107;-56
2022/04/23 01:37:21;;;;;;;3.95;2.08;;;11.30;99.90;;;;;;5006723;28;20049;-58
2022/04/23 01:39:48;;;;;;;3.88;2.35;;;11.30;99.90;;;;;;5024866;28;20089;-58
2022/04/23 01:42:17;;;;;;;3.53;2.42;;;11.30;99.90;;;;;;5020785;28;20132;-58
2022/04/23 01:44:48;;;;;;;4.65;2.25;;;11.30;99.90;;;;;;5021562;28;20077;-58
2022/04/23 01:47:15;;;;;;;3.47;2.03;;;11.30;99.90;;;;;;5003299;28;20685;-58
2022/04/23 01:49:42;;;;;;;5.68;2.47;;;11.30;99.90;;;;;;5005219;28;20486;-58
2022/04/23 01:52:09;;;;;;;4.18;2.50;;;11.30;99.90;;;;;;5011587;28;20088;-57
2022/04/23 01:54:36;;;;;;;4.03;2.20;;;11.30;99.90;;;;;;5024758;28;20526;-58
2022/04/23 01:57:03;;;;;;;3.45;2.30;;;11.30;99.90;;;;;;5023166;28;20057;-58
2022/04/23 01:59:30;;;;;;;3.30;2.05;;;11.30;99.90;;;;;;5023410;28;20081;-58
2022/04/23 02:01:58;;;;;;;3.15;2.03;;;11.30;99.90;;;;;;5022566;28;20057;-59
2022/04/23 02:04:26;;;;;;;3.97;2.40;;;11.30;99.90;;;;;;5023193;28;20049;-58
2022/04/23 02:06:53;;;;;;;3.40;2.20;;;11.30;99.90;;;;;;5021870;28;20113;-58
2022/04/23 02:09:20;;;;;;;2.80;1.70;;;11.40;99.90;;;;;;5024107;28;20042;-58
2022/04/23 02:11:47;;;;;;;3.45;2.45;;;11.40;99.90;;;;;;5007788;28;20161;-58
2022/04/23 02:14:13;;;;;;;3.30;2.10;;;11.40;99.90;;;;;;5021265;28;20073;-58
2022/04/23 02:16:40;;;;;;;3.15;2.22;;;11.40;99.90;;;;;;5022706;28;20041;-59
2022/04/23 02:19:07;;;;;;;3.75;2.50;;;11.30;99.90;;;;;;5024308;28;20155;-58
2022/04/23 02:21:34;;;;;;;4.95;3.05;;;11.40;99.90;;;;;;5020397;28;20042;-57
2022/04/23 02:24:04;;;;;;;3.78;2.67;;;11.30;99.90;;;;;;5023030;28;20091;-58
2022/04/23 02:26:30;;;;;;;5.50;2.90;;;11.30;99.90;;;;;;5021534;28;20053;-58
2022/04/23 02:28:57;;;;;;;5.53;3.00;;;11.30;99.90;;;;;;5004365;28;20060;-58
2022/04/23 02:31:24;;;;;;;5.95;3.58;;;11.30;99.90;;;;;;5003513;28;20042;-58
2022/04/23 02:33:51;;;;;;;5.43;3.03;;;11.30;99.90;;;;;;5018108;28;20046;-58
2022/04/23 02:36:18;;;;;;;6.65;3.85;;;11.30;99.90;;;;;;5019841;28;20196;-58
2022/04/23 02:38:45;;;;;;;4.28;3.03;;;11.30;99.90;;;;;;5022571;28;20129;-56
2022/04/23 02:41:11;;;;;;;4.95;3.25;;;11.30;99.90;;;;;;5011593;28;20140;-58
2022/04/23 02:43:39;;;;;;;5.07;3.38;;;11.30;99.90;;;;;;5009772;28;20165;-58
2022/04/23 02:46:06;;;;;;;4.45;3.10;;;11.30;99.90;;;;;;5015978;28;20549;-59
2022/04/23 02:48:33;;;;;;;7.97;4.45;;;11.40;99.90;;;;;;5024116;28;20049;-57
2022/04/23 02:51:00;;;;;;;7.15;4.45;;;11.30;99.90;;;;;;5019459;28;20140;-59
2022/04/23 02:53:28;;;;;;;7.22;3.47;;;11.30;99.90;;;;;;5009761;28;20886;-58
2022/04/23 02:55:56;;;;;;;6.40;3.33;;;11.40;99.90;;;;;;5018293;28;20134;-58
2022/04/23 02:58:25;;;;;;;5.90;3.00;;;11.40;99.90;;;;;;5004342;28;20073;-58
2022/04/23 03:00:53;;;;;;;4.00;3.10;;;11.40;99.90;;;;;;5002160;28;20050;-58
2022/04/23 03:03:20;;;;;;;5.00;3.15;;;11.40;99.90;;;;;;5024101;28;20103;-57
2022/04/23 03:05:48;;;;;;;4.80;2.75;;;11.40;99.90;;;;;;5013937;28;20410;-58
2022/04/23 03:08:14;;;;;;;3.88;2.75;;;11.40;99.90;;;;;;5024010;28;20458;-58
2022/04/23 03:10:41;;;;;;;3.88;2.35;;;11.40;99.90;;;;;;5018636;28;20050;-58
2022/04/23 03:13:08;;;;;;;3.67;2.67;;;11.40;99.90;;;;;;5011404;28;20060;-57
2022/04/23 03:15:35;;;;;;;2.92;2.30;;;11.40;99.90;;;;;;5011900;28;20108;-58
2022/04/23 03:18:21;;;;;;;4.85;2.90;;;11.50;99.90;;;;;;5002693;28;20086;-56
2022/04/23 03:20:48;;;;;;;3.85;2.33;;;11.50;99.90;;;;;;5008645;28;20897;-56
2022/04/23 03:23:14;;;;;;;3.15;2.25;;;11.50;99.90;;;;;;5023984;28;20088;-58
2022/04/23 03:25:41;;;;;;;3.97;2.45;;;11.50;99.90;;;;;;5022429;28;20128;-58
2022/04/23 03:28:08;;;;;;;3.83;2.60;;;11.50;99.90;;;;;;5023953;28;20096;-59
2022/04/23 03:30:35;;;;;;;3.65;2.40;;;11.50;99.90;;;;;;5007459;28;20513;-58
2022/04/23 03:33:02;;;;;;;4.60;2.80;;;11.50;99.90;;;;;;5010139;28;20076;-58
2022/04/23 03:35:29;;;;;;;4.05;3.20;;;11.50;99.90;;;;;;5009639;28;20138;-54
2022/04/23 03:37:57;;;;;;;3.80;2.55;;;11.50;99.90;;;;;;5017436;28;20053;-58
2022/04/23 03:40:24;;;;;;;3.30;2.60;;;11.50;99.90;;;;;;5015856;28;20124;-58
2022/04/23 03:42:51;;;;;;;3.72;2.20;;;11.50;99.90;;;;;;5013468;28;20141;-58
2022/04/23 03:45:18;;;;;;;4.63;2.63;;;11.50;99.90;;;;;;5019802;28;20128;-59
2022/04/23 03:47:48;;;;;;;3.00;2.38;;;11.50;99.90;;;;;;5013063;28;20057;-59
2022/04/23 03:50:15;;;;;;;4.32;2.88;;;11.50;99.90;;;;;;5013476;28;20747;-57
2022/04/23 03:52:42;;;;;;;4.53;3.50;;;11.50;99.90;;;;;;5009660;28;20058;-56
2022/04/23 03:55:11;;;;;;;4.55;3.40;;;11.40;99.90;;;;;;5026818;28;20132;-58
2022/04/23 03:57:51;;;;;;;5.00;3.50;;;11.40;99.90;;;;;;5021046;28;20053;-58
2022/04/23 04:00:20;;;;;;;4.97;3.50;;;11.50;99.90;;;;;;5023293;28;20132;-58
2022/04/23 04:02:47;;;;;;;4.43;3.47;;;11.40;99.90;;;;;;5029184;28;20303;-59
2022/04/23 04:05:14;;;;;;;5.85;4.47;;;11.40;99.90;;;;;;5023083;28;20469;-57
2022/04/23 04:07:45;;;;;;;5.97;4.40;;;11.40;99.90;;;;;;5029741;28;20128;-57
2022/04/23 04:10:12;;;;;;;6.10;4.60;;;11.40;99.90;;;;;;5031067;28;20083;-58
2022/04/23 04:12:39;;;;;;;6.72;4.40;;;11.40;99.90;;;;;;5024635;28;20045;-58
2022/04/23 04:15:06;;;;;;;5.13;4.30;;;11.40;99.90;;;;;;5023672;28;20087;-58
2022/04/23 04:17:34;;;;;;;5.60;4.55;;;11.40;99.90;;;;;;5043674;28;20064;-58
2022/04/23 04:20:02;;;;;;;5.32;3.90;;;11.40;99.90;;;;;;5032120;28;20129;-58
2022/04/23 04:22:30;;;;;;;5.80;4.53;;;11.40;99.90;;;;;;5026053;28;20283;-58
2022/04/23 04:24:57;;;;;;;5.72;4.43;;;11.40;99.90;;;;;;5032018;28;20131;-58
2022/04/23 04:27:24;;;;;;;6.57;4.90;;;11.40;99.90;;;;;;5025983;28;20080;-58
2022/04/23 04:29:51;;;;;;;6.40;4.45;;;11.50;99.90;;;;;;5022736;28;20053;-58
2022/04/23 04:32:18;;;;;;;4.22;3.63;;;11.40;99.90;;;;;;5032022;28;20128;-57
2022/04/23 04:34:45;;;;;;;5.82;4.45;;;11.40;99.90;;;;;;5025791;28;20140;-58
2022/04/23 04:37:12;;;;;;;4.90;4.15;;;11.50;99.90;;;;;;5026032;28;20059;-57
2022/04/23 04:39:41;;;;;;;6.43;4.80;;;11.40;99.90;;;;;;5025487;28;20137;-57
2022/04/23 04:42:09;;;;;;;6.32;4.90;;;11.50;99.90;;;;;;5024841;28;20481;-58
2022/04/23 04:44:35;;;;;;;5.95;5.35;;;11.50;99.90;;;;;;5023241;28;20132;-58
2022/04/23 04:47:04;;;;;;;7.65;5.65;;;11.50;99.90;;;;;;5023853;28;20053;-59
2022/04/23 04:49:31;;;;;;;5.82;5.07;;;11.50;99.90;;;;;;5025640;28;20088;-58
2022/04/23 04:51:58;;;;;;;6.20;5.28;;;11.50;99.90;;;;;;5025617;28;20081;-58
2022/04/23 04:54:24;;;;;;;5.47;4.72;;;11.50;99.90;;;;;;5023192;28;20461;-58
2022/04/23 04:56:51;;;;;;;6.05;4.72;;;11.50;99.90;;;;;;5044413;28;20045;-58
2022/04/23 04:59:20;;;;;;;7.50;5.90;;;11.60;99.90;;;;;;5042047;28;20068;-59
2022/04/23 05:01:47;;;;;;;5.68;5.07;;;11.60;99.90;;;;;;5027207;28;20152;-59
2022/04/23 05:04:14;;;;;;;6.70;5.38;;;11.50;99.90;;;;;;5019518;28;20520;-57
2022/04/23 05:06:41;;;;;;;5.25;4.75;;;11.50;99.90;;;;;;5042839;28;20053;-58
2022/04/23 05:09:08;;;;;;;6.97;5.22;;;11.60;99.90;;;;;;5038020;28;20501;-58
2022/04/23 05:11:34;;;;;;;5.50;4.75;;;11.60;99.90;;;;;;5042286;28;20041;-58
2022/04/23 05:14:01;;;;;;;6.75;5.47;;;11.60;99.90;;;;;;5015194;28;20634;-58
2022/04/23 05:16:28;;;;;;;5.53;4.93;;;11.60;99.90;;;;;;5017852;28;20564;-58
2022/04/23 05:18:55;;;;;;;5.55;4.80;;;11.60;99.90;;;;;;5015399;28;20054;-59
2022/04/23 05:21:21;;;;;;;6.70;6.00;;;11.60;99.90;;;;;;5018008;28;20045;-59
2022/04/23 05:23:48;;;;;;;7.50;6.60;;;11.60;99.90;;;;;;5013736;28;20103;-57
2022/04/23 05:26:15;;;;;;;6.97;5.63;;;11.60;99.90;;;;;;5016871;28;20085;-59
2022/04/23 05:28:42;;;;;;;6.05;5.10;;;11.60;99.90;;;;;;5007721;28;20129;-59
2022/04/23 05:31:09;;;;;;;6.20;4.80;;;11.70;99.90;;;;;;5012112;28;20505;-58
2022/04/23 05:33:35;;;;;;;5.65;4.70;;;11.70;99.90;;;;;;5014158;28;20472;-58
2022/04/23 05:36:06;;;;;;;4.75;4.25;;;11.70;99.90;;;;;;5017813;28;20038;-58
2022/04/23 05:38:36;;;;;;;6.28;5.05;;;11.70;99.90;;;;;;5003443;28;20058;-58
2022/04/23 05:41:03;;;;;;;6.32;4.93;;;11.70;99.90;;;;;;5001748;28;20136;-58
2022/04/23 05:43:30;;;;;;;6.15;5.22;;;11.70;99.90;;;;;;5014178;28;20073;-59
2022/04/23 05:45:59;;;;;;;6.57;5.40;;;11.70;99.90;;;;;;5003232;28;20050;-59
2022/04/23 05:48:27;;;;;;;4.20;3.50;;;11.70;99.90;;;;;;5013813;28;20484;-57
2022/04/23 05:50:53;;;;;;;6.30;5.07;;;11.70;99.90;;;;;;5009293;28;20100;-59
2022/04/23 05:53:20;;;;;;;6.43;4.97;;;11.80;99.90;;;;;;5007250;28;20132;-58
2022/04/23 05:55:47;;;;;;;5.93;4.13;;;11.80;99.90;;;;;;5007221;28;20461;-59
2022/04/23 05:58:18;;;;;;;5.20;4.40;;;11.80;99.90;;;;;;5004556;28;20065;-58
2022/04/23 06:00:44;;;;;;;4.65;3.97;;;11.80;99.90;;;;;;5010704;28;20081;-59
2022/04/23 06:03:12;;;;;;;6.28;4.53;;;11.80;99.90;;;;;;5004933;28;20136;-58
2022/04/23 06:05:39;;;;;;;6.95;4.80;;;11.90;99.90;;;;;;4999236;28;20049;-58
2022/04/23 06:08:06;;;;;;;4.80;4.13;;;11.90;99.90;;;;;;5011913;28;20132;-58
2022/04/23 06:10:34;;;;;;;6.65;4.93;;;11.90;99.90;;;;;;5013220;28;20085;-59
2022/04/23 06:13:01;;;;;;;6.75;4.72;;;11.90;99.90;;;;;;5017378;28;20139;-57
2022/04/23 06:15:27;;;;;;;4.45;3.95;;;11.90;99.90;;;;;;5010202;28;20049;-59
2022/04/23 06:17:54;;;;;;;6.28;4.32;;;12.00;99.90;;;;;;5015987;28;20209;-58
2022/04/23 06:20:21;;;;;;;4.70;4.00;;;12.00;99.90;;;;;;5005449;28;20153;-58
2022/04/23 06:22:48;;;;;;;4.32;3.67;;;12.10;99.90;;;;;;5012910;28;20140;-58
2022/04/23 06:25:14;;;;;;;4.07;3.20;;;12.10;99.90;;;;;;5017374;28;20089;-59
2022/04/23 06:27:41;;;;;;;4.50;3.47;;;12.20;99.90;;;;;;5011643;28;20109;-59
2022/04/23 06:30:11;;;;;;;6.38;3.90;;;12.20;99.90;;;;;;5013247;28;20156;-57
2022/04/23 06:32:38;;;;;;;5.88;4.60;;;12.20;99.90;;;;;;5016703;28;20053;-58
2022/04/23 06:35:06;;;;;;;4.65;3.97;;;12.10;99.90;;;;;;5016636;28;20088;-58
2022/04/23 06:37:40;;;;;;;6.00;4.65;;;12.10;99.90;;;;;;4997343;28;20042;-59
2022/04/23 06:40:11;;;;;;;6.53;4.60;;;12.00;99.90;;;;;;5008872;28;20084;-58
2022/04/23 06:42:39;;;;;;;4.72;4.07;;;12.00;99.90;;;;;;5010805;28;20054;-59
2022/04/23 06:45:06;;;;;;;5.32;4.55;;;12.10;99.90;;;;;;5010875;28;20154;-59
2022/04/23 06:47:33;;;;;;;6.43;4.70;;;12.10;99.90;;;;;;5016867;28;20048;-58
2022/04/23 06:50:00;;;;;;;6.82;5.10;;;12.10;99.90;;;;;;5028534;28;20071;-58
2022/04/23 06:52:27;;;;;;;7.20;5.03;;;12.00;99.90;;;;;;5037081;28;20496;-61
2022/04/23 06:54:54;;;;;;;5.82;4.60;;;12.00;99.90;;;;;;5010901;28;20060;-59
2022/04/23 06:57:25;;;;;;;6.10;4.00;;;12.00;99.90;;;;;;4997667;28;20049;-58
2022/04/23 06:59:52;;;;;;;5.72;4.07;;;12.00;99.90;;;;;;4996030;28;20138;-58
2022/04/23 07:02:19;;;;;;;5.75;3.70;;;12.00;99.90;;;;;;5004556;28;20619;-58
2022/04/23 07:04:46;;;;;;;4.25;3.42;;;12.00;99.90;;;;;;5022309;28;20128;-59
2022/04/23 07:07:13;;;;;;;5.30;3.85;;;12.10;99.90;;;;;;5015774;28;20099;-58
2022/04/23 07:09:40;;;;;;;6.10;4.55;;;12.10;99.90;;;;;;5040277;28;20430;-59
2022/04/23 07:12:07;;;;;;;5.35;4.43;;;12.20;99.90;;;;;;5043382;28;20074;-59
2022/04/23 07:14:34;;;;;;;5.20;4.22;;;12.20;99.90;;;;;;5023710;28;20449;-59
2022/04/23 07:17:06;;;;;;;5.40;4.43;;;12.20;99.90;;;;;;5010842;28;20046;-58
2022/04/23 07:19:37;;;;;;;6.68;4.93;;;12.30;99.90;;;;;;5022639;28;20087;-59
2022/04/23 07:22:06;;;;;;;6.18;4.82;;;12.30;99.90;;;;;;5046256;28;20554;-59
2022/04/23 07:24:33;;;;;;;4.75;4.20;;;12.30;99.90;;;;;;5025862;28;20068;-58
2022/04/23 07:27:00;;;;;;;6.20;5.05;;;12.40;99.90;;;;;;5026544;28;20698;-59
2022/04/23 07:29:28;;;;;;;6.35;4.53;;;12.50;99.90;;;;;;5023982;28;20140;-59
2022/04/23 07:31:56;;;;;;;5.68;5.07;;;12.60;99.90;;;;;;5025417;28;20112;-59
2022/04/23 07:40:02;;;;;;;5.85;5.28;;;13.20;99.90;;;;;;5020673;28;20110;-56
2022/04/23 07:42:28;;;;;;;7.88;6.25;;;13.30;99.90;;;;;;5021894;28;20077;-59
2022/04/23 07:44:55;;;;;;;8.20;6.78;;;13.40;99.90;;;;;;5016305;28;20068;-59
2022/04/23 07:47:22;;;;;;;6.63;5.80;;;13.40;99.90;;;;;;5028956;28;20120;-59
2022/04/23 07:49:49;;;;;;;6.07;5.40;;;13.60;99.90;;;;;;5045687;28;20139;-60
2022/04/23 07:52:16;;;;;;;7.70;5.80;;;13.70;99.90;;;;;;5033264;28;20184;-59
2022/04/23 07:54:43;;;;;;;6.53;5.85;;;13.80;99.90;;;;;;5020196;28;20891;-59
2022/04/23 07:57:11;;;;;;;6.10;5.15;;;13.90;99.90;;;;;;5013699;28;20171;-59
2022/04/23 07:59:39;;;;;;;5.25;4.63;;;13.90;99.90;;;;;;5007803;28;20137;-59
2022/04/23 08:02:06;;;;;;;6.90;6.20;;;14.00;99.90;;;;;;5007872;28;20575;-59
2022/04/23 08:04:33;;;;;;;7.43;6.63;;;14.00;99.90;;;;;;5022977;28;20057;-59
2022/04/23 08:07:00;;;;;;;8.95;7.50;;;13.90;99.90;;;;;;5025377;28;20052;-59
2022/04/23 08:09:27;;;;;;;7.72;6.93;;;13.80;99.90;;;;;;5025352;28;20144;-59
2022/04/23 08:11:54;;;;;;;8.95;8.10;;;13.90;99.90;;;;;;5022119;28;20140;-59
2022/04/23 08:14:21;;;;;;;8.90;8.00;;;13.90;99.90;;;;;;5013353;28;20441;-59
2022/04/23 08:16:49;;;;;;;9.88;7.50;;;13.90;99.90;;;;;;5026132;28;20163;-59
2022/04/23 08:19:17;;;;;;;7.07;6.38;;;14.10;99.90;;;;;;5025404;28;20250;-59
2022/04/23 08:21:44;;;;;;;7.28;6.28;;;14.30;99.90;;;;;;5019382;28;20037;-59
2022/04/23 08:24:11;;;;;;;7.57;5.50;;;14.30;99.90;;;;;;5011261;28;20140;-58
2022/04/23 08:26:37;;;;;;;7.03;6.32;;;14.40;99.90;;;;;;5010202;28;20063;-59
2022/04/23 08:31:49;;;;;;;8.02;6.50;;;14.40;99.90;;;;;;5008540;28;20073;-57
2022/04/23 08:34:16;;;;;;;7.57;6.88;;;14.40;99.90;;;;;;5002104;28;20049;-59
2022/04/23 08:36:43;;;;;;;8.95;7.82;;;14.30;99.90;;;;;;5020076;28;20153;-59
2022/04/23 08:39:10;;;;;;;7.07;6.38;;;14.20;99.90;;;;;;5013439;28;20112;-59
2022/04/23 08:41:36;;;;;;;6.35;5.75;;;14.30;99.90;;;;;;5019148;28;20128;-59
2022/04/23 08:44:07;;;;;;;7.10;6.30;;;14.40;99.90;;;;;;5011444;28;20056;-59
2022/04/23 08:46:38;;;;;;;7.82;7.05;;;14.40;99.90;;;;;;5010851;28;20046;-58
2022/04/23 08:49:11;;;;;;;7.55;6.85;;;14.50;99.90;;;;;;5017094;28;20053;-59
2022/04/23 08:51:39;;;;;;;8.05;7.13;;;14.50;99.90;;;;;;5017245;28;20053;-58
2022/04/23 08:54:10;;;;;;;7.97;7.18;;;14.60;99.90;;;;;;5021052;28;20152;-59
2022/04/23 08:56:37;;;;;;;8.23;7.50;;;14.70;99.90;;;;;;5021392;28;20045;-59
2022/04/23 08:59:06;;;;;;;6.93;6.22;;;14.70;99.90;;;;;;5014452;28;20442;-59
2022/04/23 09:01:34;;;;;;;8.80;7.60;;;14.70;99.90;;;;;;5010080;28;20086;-59
2022/04/23 09:04:02;;;;;;;8.98;8.18;;;14.70;99.90;;;;;;5020037;28;20423;-59
2022/04/23 09:06:43;;;;;;;10.63;9.30;;;14.60;99.90;;;;;;5016454;28;20049;-59
2022/04/23 09:09:22;;;;;;;10.35;9.32;;;14.40;99.90;;;;;;5005769;28;20073;-59
2022/04/23 09:11:50;;;;;;;10.30;9.30;;;14.40;99.90;;;;;;5003643;28;20145;-59
2022/04/23 09:14:28;;;;;;;11.55;9.63;;;14.40;99.90;;;;;;5013531;28;20133;-59
2022/04/23 09:25:40;;;;;;;8.32;7.50;;;14.80;99.90;;;;;;5014977;28;20053;-60
2022/04/23 09:28:23;;;;;;;6.30;5.75;;;15.10;99.90;;;;;;5021739;28;20557;-59
2022/04/23 09:30:51;;;;;;;6.60;5.97;;;15.40;99.90;;;;;;5039793;28;20261;-59
2022/04/23 09:33:19;;;;;;;7.95;7.25;;;15.50;99.90;;;;;;5010867;28;20050;-59
2022/04/23 09:35:55;;;;;;;7.95;7.15;;;15.40;99.90;;;;;;5010399;28;20057;-60
2022/04/23 09:38:22;;;;;;;7.60;6.82;;;15.40;99.90;;;;;;5000495;28;20065;-59
2022/04/23 09:40:56;;;;;;;7.93;7.13;;;15.40;99.90;;;;;;5016887;28;20049;-59
2022/04/23 09:43:28;;;;;;;8.80;7.80;;;15.60;99.90;;;;;;5015187;28;20136;-59
2022/04/23 09:46:03;;;;;;;7.53;6.68;;;15.70;99.90;;;;;;5009461;28;20545;-59
2022/04/23 09:48:38;;;;;;;8.93;8.02;;;15.60;99.90;;;;;;5000416;28;20813;-59
2022/04/23 09:51:05;;;;;;;9.32;8.48;;;15.70;99.90;;;;;;5005115;28;20397;-59
2022/04/23 09:53:32;;;;;;;8.00;7.20;;;15.90;99.90;;;;;;5008569;28;20075;-59
2022/04/23 09:55:59;;;;;;;8.65;7.88;;;16.00;99.90;;;;;;4998747;28;20145;-60
2022/04/23 09:58:29;;;;;;;9.10;8.20;;;16.10;99.90;;;;;;5015398;28;20128;-59
2022/04/23 10:00:57;;;;;;;7.70;6.88;;;16.20;99.90;;;;;;5015030;28;20055;-59
2022/04/23 10:03:31;;;;;;;8.02;7.10;;;16.40;99.90;;;;;;5017260;28;20137;-57
2022/04/23 10:05:59;;;;;;;8.57;7.75;;;16.40;99.90;;;;;;5020394;28;20056;-59
2022/04/23 10:08:36;;;;;;;8.63;7.82;;;16.50;99.90;;;;;;5025852;28;20132;-59
2022/04/23 10:11:10;;;;;;;9.25;8.45;;;16.40;99.90;;;;;;5018486;28;20055;-58
2022/04/23 10:13:39;;;;;;;10.43;9.40;;;16.50;99.90;;;;;;5037662;28;20084;-59
2022/04/23 10:16:07;;;;;;;11.02;9.82;;;16.40;99.90;;;;;;5023835;28;20060;-58
2022/04/23 10:18:38;;;;;;;10.25;9.27;;;16.40;99.90;;;;;;5015733;28;20046;-57
2022/04/23 10:21:08;;;;;;;10.82;9.63;;;16.40;99.90;;;;;;5011745;28;20140;-58
2022/04/23 10:24:13;;;;;;;9.57;8.68;;;16.30;99.90;;;;;;5016422;28;20111;-59
2022/04/23 10:26:54;;;;;;;9.30;8.45;;;16.40;99.90;;;;;;5015904;28;20069;-59
2022/04/23 10:29:22;;;;;;;8.48;7.78;;;16.50;99.90;;;;;;5019575;28;20089;-58
2022/04/23 10:32:11;;;;;;;9.00;8.10;;;16.60;99.90;;;;;;5014462;28;20045;-59
2022/04/23 10:34:39;;;;;;;7.75;7.05;;;16.60;99.90;;;;;;4999909;28;20568;-59
2022/04/23 10:37:13;;;;;;;8.45;7.55;;;16.70;99.90;;;;;;5015876;28;20556;-59
2022/04/23 10:39:42;;;;;;;8.18;7.38;;;16.60;99.90;;;;;;5024478;28;20139;-59
2022/04/23 10:42:13;;;;;;;9.68;8.75;;;16.60;99.90;;;;;;5026787;28;20091;-59
2022/04/23 10:44:42;;;;;;;7.97;7.18;;;16.60;99.90;;;;;;5018197;28;20515;-59
2022/04/23 10:47:14;;;;;;;9.05;8.15;;;16.60;99.90;;;;;;5018325;28;20061;-59
2022/04/23 10:49:41;;;;;;;9.07;8.27;;;16.60;99.90;;;;;;5017029;28;21026;-58
2022/04/23 10:52:08;;;;;;;10.63;9.43;;;16.60;99.90;;;;;;5022867;28;21023;-59
2022/04/23 10:54:40;;;;;;;11.60;10.52;;;16.50;99.90;;;;;;5012849;28;20069;-59
2022/04/23 10:57:08;;;;;;;12.52;11.43;;;16.30;99.90;;;;;;4999054;28;20513;-59
2022/04/23 10:59:44;;;;;;;14.90;12.90;;;16.20;99.90;;;;;;4997161;28;20733;-59
2022/04/23 11:02:18;;;;;;;13.18;11.90;;;16.20;99.90;;;;;;5002237;28;20072;-59
2022/04/23 11:13:31;;;;;;;11.27;10.20;;;16.70;99.90;;;;;;5008147;28;20060;-59
2022/04/23 11:16:08;;;;;;;10.23;9.32;;;16.60;99.90;;;;;;5007769;28;20296;-59
2022/04/23 11:18:35;;;;;;;11.45;10.35;;;16.70;99.90;;;;;;5004843;28;20700;-59
2022/04/23 11:21:19;;;;;;;11.95;10.70;;;16.60;99.90;;;;;;4998697;28;20085;-60
2022/04/23 11:23:47;;;;;;;10.90;9.98;;;16.60;99.90;;;;;;5004117;28;20077;-59
2022/04/23 11:26:38;;;;;;;11.70;10.55;;;16.80;99.90;;;;;;5007547;28;20041;-59
2022/04/23 11:29:05;;;;;;;11.15;10.05;;;17.00;99.90;;;;;;5013047;28;20394;-59
2022/04/23 11:31:32;;;;;;;11.02;10.02;;;17.20;99.90;;;;;;5004687;28;20844;-59
2022/04/23 11:34:00;;;;;;;11.38;10.00;;;17.60;99.90;;;;;;5011430;28;20054;-60
2022/04/23 11:36:27;;;;;;;11.93;10.73;;;17.80;99.90;;;;;;5026710;28;20575;-59
2022/04/23 11:38:58;;;;;;;10.32;9.40;;;17.90;99.90;;;;;;5005240;28;20140;-59
2022/04/23 11:41:26;;;;;;;12.38;11.18;;;17.80;99.90;;;;;;5009925;28;20053;-60
2022/04/23 11:43:53;;;;;;;11.02;10.02;;;17.30;99.90;;;;;;5000235;28;20068;-60
2022/04/23 11:46:20;;;;;;;10.30;9.38;;;17.20;99.90;;;;;;5011174;28;20053;-59
2022/04/23 11:48:48;;;;;;;8.73;7.93;;;17.30;99.90;;;;;;5019786;28;20053;-59
2022/04/23 11:51:15;;;;;;;9.80;8.90;;;17.60;99.90;;;;;;5003975;28;20999;-60
2022/04/23 11:53:53;;;;;;;10.70;9.52;;;17.80;99.90;;;;;;5010926;28;20140;-60
2022/04/23 11:56:33;;;;;;;8.68;7.88;;;18.10;99.90;;;;;;5009596;28;20168;-59
2022/04/23 11:59:03;;;;;;;10.10;9.20;;;18.60;99.50;;;;;;5004944;28;20133;-59
2022/04/23 12:01:30;;;;;;;9.80;8.90;;;18.80;98.80;;;;;;5003345;28;20099;-59
2022/04/23 12:03:57;;;;;;;7.32;6.70;;;19.00;98.60;;;;;;5007794;28;20045;-60
2022/04/23 12:06:24;;;;;;;7.60;6.85;;;19.50;98.50;;;;;;5007114;28;20107;-60
2022/04/23 12:08:51;;;;;;;6.40;5.72;;;20.00;98.60;;;;;;5012578;28;20564;-60
2022/04/23 12:11:22;;;;;;;5.90;5.30;;;20.40;97.80;;;;;;5007358;28;20085;-60
2022/04/23 12:13:49;;;;;;;5.88;5.32;;;20.60;97.00;;;;;;5004534;28;20476;-60
2022/04/23 12:16:39;;;;;;;5.63;5.13;;;20.60;96.90;;;;;;5002356;28;20638;-61
2022/04/23 12:19:07;;;;;;;7.28;6.57;;;20.60;96.90;;;;;;5024739;28;20128;-60
2022/04/23 12:21:34;;;;;;;8.85;7.95;;;20.20;96.80;;;;;;5022585;28;20090;-60
2022/04/23 12:24:01;;;;;;;8.02;7.20;;;19.80;96.80;;;;;;5006261;28;20161;-60
2022/04/23 12:26:35;;;;;;;8.95;7.50;;;19.60;97.00;;;;;;5010730;28;20133;-60
2022/04/23 12:43:21;;;;;;;6.88;6.20;;;19.00;97.00;;;;;;5006216;28;20388;-61
2022/04/23 12:45:49;;;;;;;7.32;6.63;;;19.40;96.80;;;;;;5003428;28;20046;-61
2022/04/23 12:48:16;;;;;;;7.53;6.82;;;19.50;96.40;;;;;;5011848;28;20582;-61
2022/04/23 12:50:46;;;;;;;5.70;5.15;;;19.50;96.40;;;;;;5010630;28;20121;-60
2022/04/23 12:53:31;;;;;;;6.78;6.18;;;19.70;96.60;;;;;;5020570;28;20144;-60
2022/04/23 12:55:59;;;;;;;6.15;5.55;;;19.70;96.00;;;;;;5010870;28;20081;-61
2022/04/23 12:58:28;;;;;;;6.72;6.13;;;19.90;95.90;;;;;;5009535;28;20132;-60
2022/04/23 13:00:54;;;;;;;8.43;7.63;;;19.70;95.50;;;;;;5009697;28;20629;-60
2022/04/23 13:03:34;;;;;;;7.53;6.78;;;19.50;96.00;;;;;;5012569;28;20053;-60
2022/04/23 13:06:03;;;;;;;6.60;6.00;;;19.80;96.00;;;;;;5025751;28;20064;-60
2022/04/23 13:11:25;;;;;;;7.13;6.43;;;20.40;95.00;;;;;;5011602;28;20148;-61
2022/04/23 13:13:57;;;;;;;7.15;6.45;;;21.20;94.10;;;;;;5020835;28;20080;-61
2022/04/23 13:16:25;;;;;;;5.15;4.65;;;21.00;94.20;;;;;;5023927;28;20444;-61
2022/04/23 13:18:54;;;;;;;7.22;5.47;;;20.80;94.50;;;;;;5020668;28;20045;-60
2022/04/23 13:21:22;;;;;;;5.75;5.20;;;20.30;94.60;;;;;;5003896;28;20062;-61
2022/04/23 13:23:51;;;;;;;6.45;5.85;;;19.90;95.20;;;;;;5012263;28;20330;-60
2022/04/23 13:26:19;;;;;;;6.45;5.78;;;19.50;95.40;;;;;;5010858;28;20084;-60
2022/04/23 13:28:46;;;;;;;5.65;4.70;;;19.30;95.90;;;;;;5010795;28;20053;-60
2022/04/23 13:31:14;;;;;;;5.47;4.97;;;19.20;96.00;;;;;;5005762;28;20080;-60
2022/04/23 13:33:42;;;;;;;7.40;6.70;;;19.10;96.20;;;;;;5004163;28;20474;-60
2022/04/23 13:36:09;;;;;;;8.35;7.55;;;18.80;96.50;;;;;;5011816;28;20093;-60